EKYT

Aalborg Airport

Aalborg, Denmark
METAR EKYT 211420Z AUTO 10011KT 9999NDV FEW200/// 19/06 Q1024
Observed Flight Rules
May-21 @ 14:20 UTC (26 minutes ago)
Wind Clouds
100° at 11 knots
  • Few at 20,000' AGL
Temperatures Readings
Current 19°C / 66°F
Dewpoint 6°C / 43°F
Humidity 43%
Altimeter 30.24" Hg
Pressure 1024 hPa
Elevation 3
METAR EKYT 211420Z AUTO 10011KT 9999NDV FEW200/// 19/06 Q1024
Observed Flight Rules
May-21 @ 14:20 UTC
(26 minutes ago)
Wind
100° at 11 knots
Clouds
  • Few at 20,000' AGL
Temperature Dewpoint
19°C / 66°F 6°C / 43°F
Humidity Altimeter Pressure
43% 30.24" Hg 1024 hPa